| time (UTC) | temp F | wind direction | speed knots | gust knots | rain 1hr in | rain 24hr in | rain mn in | humidity % | barometer mb |
| 20260505181916 | 74 | 185 | 3.5 | 8.7 | 0.00 | 0.00 | 0.00 | 53 | 1015.1 |
| 20260505180916 | 74 | 226 | 3.5 | 9.6 | 0.00 | 0.00 | 0.00 | 50 | 1015.1 |
| 20260505175916 | 74 | 264 | 4.3 | 9.6 | 0.00 | 0.00 | 0.00 | 51 | 1015.3 |
| 20260505174916 | 75 | 73 | 3.5 | 10.4 | 0.00 | 0.00 | 0.00 | 49 | 1015.5 |
| 20260505173916 | 75 | 315 | 3.5 | 10.4 | 0.00 | 0.00 | 0.00 | 49 | 1015.6 |
| 20260505172916 | 74 | 254 | 3.5 | 9.6 | 0.00 | 0.00 | 0.00 | 49 | 1015.4 |
| 20260505171916 | 74 | 220 | 3.5 | 7.8 | 0.00 | 0.00 | 0.00 | 48 | 1015.7 |
| 20260505170916 | 74 | 261 | 2.6 | 8.7 | 0.00 | 0.00 | 0.00 | 49 | 1016.0 |
| 20260505165916 | 74 | 263 | 4.3 | 8.7 | 0.00 | 0.00 | 0.00 | 50 | 1016.1 |
| 20260505164916 | 74 | 45 | 3.5 | 7.8 | 0.00 | 0.00 | 0.00 | 51 | 1016.3 |
| 20260505163916 | 73 | 4 | 4.3 | 10.4 | 0.00 | 0.00 | 0.00 | 50 | 1016.5 |
| 20260505162916 | 73 | 225 | 3.5 | 13.9 | 0.00 | 0.00 | 0.00 | 51 | 1016.6 |
| 20260505161916 | 73 | 157 | 5.2 | 11.3 | 0.00 | 0.00 | 0.00 | 49 | 1016.6 |
| 20260505160916 | 73 | 341 | 4.3 | 12.2 | 0.00 | 0.00 | 0.00 | 50 | 1016.4 |
| 20260505152916 | 71 | 274 | 3.5 | 11.3 | 0.00 | 0.00 | 0.00 | 54 | 1016.6 |
| 20260505151916 | 71 | 253 | 1.7 | 6.1 | 0.00 | 0.00 | 0.00 | 56 | 1016.4 |
| 20260505150916 | 71 | 114 | 1.7 | 4.3 | 0.00 | 0.00 | 0.00 | 56 | 1016.5 |
| 20260505124917 | 59 | 345 | 0.9 | 1.7 | 0.00 | 0.00 | 0.00 | 73 | 1016.5 |
| 20260505123917 | 58 | 345 | 0.0 | 0.0 | 0.00 | 0.00 | 0.00 | 74 | 1016.3 |
| 20260505122917 | 58 | 345 | 0.0 | 0.9 | 0.00 | 0.00 | 0.00 | 74 | 1016.3 |
| 20260505121917 | 57 | 345 | 0.0 | 1.7 | 0.00 | 0.00 | 0.00 | 75 | 1016.3 |
| 20260505120917 | 56 | 349 | 0.9 | 1.7 | 0.00 | 0.00 | 0.00 | 75 | 1016.2 |
| 20260505115917 | 56 | 9 | 0.9 | 2.6 | 0.00 | 0.00 | 0.00 | 75 | 1016.3 |
| 20260505114917 | 55 | 10 | 0.9 | 2.6 | 0.00 | 0.00 | 0.00 | 75 | 1016.1 |
| 20260505113917 | 55 | 16 | 0.9 | 0.9 | 0.00 | 0.00 | 0.00 | 75 | 1016.0 |
| 20260505112917 | 56 | 359 | 0.9 | 4.3 | 0.00 | 0.00 | 0.00 | 74 | 1015.8 |
| 20260505111917 | 58 | 152 | 0.0 | 0.0 | 0.00 | 0.00 | 0.00 | 66 | 1015.6 |
| 20260505110917 | 57 | 153 | 0.0 | 0.0 | 0.00 | 0.00 | 0.00 | 66 | 1015.4 |
| 20260505101917 | 60 | 152 | 0.0 | 0.0 | 0.00 | 0.00 | 0.00 | 60 | 1015.3 |
| 20260505100917 | 61 | 152 | 0.0 | 0.0 | 0.00 | 0.00 | 0.00 | 59 | 1015.4 |
| 20260505095917 | 61 | 152 | 0.0 | 0.0 | 0.00 | 0.00 | 0.00 | 58 | 1015.5 |
| 20260505094917 | 62 | 152 | 0.0 | 0.0 | 0.00 | 0.00 | 0.00 | 58 | 1015.5 |
| 20260505093917 | 62 | 152 | 0.9 | 1.7 | 0.00 | 0.00 | 0.00 | 59 | 1015.4 |
| 20260505092917 | 61 | 178 | 0.0 | 1.7 | 0.00 | 0.00 | 0.00 | 59 | 1015.5 |
| 20260505091917 | 61 | 179 | 0.0 | 1.7 | 0.00 | 0.00 | 0.00 | 60 | 1015.5 |
| 20260505090917 | 61 | 139 | 0.0 | 0.9 | 0.00 | 0.00 | 0.00 | 61 | 1015.4 |
| 20260505085917 | 61 | 214 | 0.0 | 0.9 | 0.00 | 0.00 | 0.00 | 60 | 1015.3 |
| 20260505084917 | 62 | 217 | 0.9 | 1.7 | 0.00 | 0.00 | 0.00 | 60 | 1015.2 |
| 20260505083917 | 62 | 171 | 0.9 | 2.6 | 0.00 | 0.00 | 0.00 | 60 | 1015.2 |
| 20260505082917 | 61 | 157 | 0.9 | 2.6 | 0.00 | 0.00 | 0.00 | 61 | 1015.1 |
| 20260505081917 | 61 | 162 | 0.9 | 2.6 | 0.00 | 0.00 | 0.00 | 63 | 1015.0 |
| 20260505080917 | 60 | 89 | 0.9 | 5.2 | 0.00 | 0.00 | 0.00 | 64 | 1015.0 |
| 20260505075917 | 60 | 192 | 0.9 | 3.5 | 0.00 | 0.00 | 0.00 | 65 | 1015.1 |
| 20260505074917 | 60 | 162 | 0.0 | 1.7 | 0.00 | 0.00 | 0.00 | 65 | 1014.9 |
| 20260505073917 | 59 | 160 | 0.0 | 1.7 | 0.00 | 0.00 | 0.00 | 66 | 1015.0 |
| 20260505072917 | 60 | 176 | 0.0 | 0.0 | 0.00 | 0.00 | 0.00 | 66 | 1015.2 |
| 20260505071917 | 60 | 176 | 0.0 | 0.0 | 0.00 | 0.00 | 0.00 | 66 | 1015.3 |
| 20260505070917 | 60 | 172 | 0.9 | 1.7 | 0.00 | 0.00 | 0.00 | 66 | 1015.4 |
| 20260505065917 | 61 | 181 | 0.0 | 1.7 | 0.00 | 0.00 | 0.00 | 65 | 1015.4 |
| 20260505064917 | 61 | 158 | 0.9 | 2.6 | 0.00 | 0.00 | 0.00 | 65 | 1015.3 |
| 20260505063917 | 61 | 156 | 1.7 | 4.3 | 0.00 | 0.00 | 0.00 | 65 | 1015.2 |
| 20260505062917 | 61 | 193 | 0.9 | 6.1 | 0.00 | 0.00 | 0.00 | 66 | 1015.2 |
| 20260505061918 | 61 | 158 | 0.9 | 4.3 | 0.00 | 0.00 | 0.00 | 66 | 1015.2 |
| 20260505060918 | 61 | 239 | 0.0 | 0.0 | 0.00 | 0.00 | 0.00 | 67 | 1015.1 |
| 20260505055918 | 61 | 268 | 0.0 | 0.0 | 0.00 | 0.00 | 0.00 | 66 | 1015.1 |
| 20260505054918 | 61 | 249 | 0.0 | 0.0 | 0.00 | 0.00 | 0.00 | 65 | 1015.1 |
| 20260505053918 | 61 | 184 | 0.0 | 1.7 | 0.00 | 0.00 | 0.00 | 66 | 1015.0 |
| 20260505052918 | 61 | 162 | 0.9 | 2.6 | 0.00 | 0.00 | 0.00 | 66 | 1015.0 |
| 20260505051918 | 61 | 116 | 0.9 | 2.6 | 0.00 | 0.00 | 0.00 | 66 | 1014.9 |
| 20260505050918 | 61 | 138 | 1.7 | 3.5 | 0.00 | 0.00 | 0.00 | 66 | 1014.8 |
| 20260505040918 | 63 | 200 | 0.9 | 1.7 | 0.00 | 0.00 | 0.00 | 62 | 1015.0 |
| 20260505035918 | 64 | 182 | 0.9 | 1.7 | 0.00 | 0.00 | 0.00 | 62 | 1015.0 |
| 20260505034918 | 64 | 172 | 0.0 | 2.6 | 0.00 | 0.00 | 0.00 | 61 | 1014.9 |
| 20260505033918 | 64 | 159 | 0.9 | 1.7 | 0.00 | 0.00 | 0.00 | 61 | 1014.9 |
| 20260505032918 | 64 | 152 | 0.9 | 2.6 | 0.00 | 0.00 | 0.00 | 61 | 1014.9 |
| 20260505031918 | 64 | 183 | 0.0 | 1.7 | 0.00 | 0.00 | 0.00 | 60 | 1015.0 |
| 20260505030918 | 65 | 184 | 0.9 | 2.6 | 0.00 | 0.00 | 0.00 | 60 | 1015.0 |
| 20260505025918 | 65 | 187 | 0.9 | 1.7 | 0.00 | 0.00 | 0.00 | 60 | 1015.1 |
| 20260505024918 | 65 | 190 | 0.9 | 3.5 | 0.00 | 0.00 | 0.00 | 60 | 1015.2 |
| 20260505023918 | 66 | 185 | 0.9 | 3.5 | 0.00 | 0.00 | 0.00 | 59 | 1015.3 |
| 20260505022918 | 66 | 187 | 0.9 | 3.5 | 0.00 | 0.00 | 0.00 | 59 | 1015.4 |
| 20260505021918 | 66 | 149 | 0.9 | 2.6 | 0.00 | 0.00 | 0.00 | 59 | 1015.3 |
| 20260505020918 | 66 | 268 | 1.7 | 4.3 | 0.00 | 0.00 | 0.00 | 59 | 1015.3 |
| 20260505015918 | 67 | 193 | 1.7 | 4.3 | 0.00 | 0.00 | 0.00 | 59 | 1015.1 |
| 20260505014918 | 67 | 176 | 1.7 | 5.2 | 0.00 | 0.00 | 0.00 | 58 | 1015.1 |
| 20260505013918 | 67 | 185 | 1.7 | 6.1 | 0.00 | 0.00 | 0.00 | 58 | 1015.1 |
| 20260505012918 | 67 | 253 | 1.7 | 4.3 | 0.00 | 0.00 | 0.00 | 58 | 1015.0 |
| 20260505011918 | 68 | 201 | 0.9 | 4.3 | 0.00 | 0.00 | 0.00 | 57 | 1014.9 |
| 20260505010918 | 68 | 177 | 1.7 | 3.5 | 0.00 | 0.00 | 0.00 | 56 | 1014.8 |
| 20260505005918 | 69 | 170 | 0.9 | 2.6 | 0.00 | 0.00 | 0.00 | 54 | 1014.8 |
| 20260505004918 | 70 | 135 | 1.7 | 2.6 | 0.00 | 0.00 | 0.00 | 53 | 1014.6 |
| 20260505003918 | 70 | 198 | 0.9 | 3.5 | 0.00 | 0.00 | 0.00 | 52 | 1014.5 |
| 20260505002918 | 71 | 261 | 1.7 | 5.2 | 0.00 | 0.00 | 0.00 | 50 | 1014.5 |
| 20260505001918 | 71 | 235 | 0.9 | 6.1 | 0.00 | 0.00 | 0.00 | 50 | 1014.5 |
| 20260505000918 | 72 | 214 | 1.7 | 3.5 | 0.00 | 0.00 | 0.00 | 49 | 1014.5 |
| 20260504235918 | 72 | 186 | 1.7 | 5.2 | 0.00 | 0.00 | 0.00 | 47 | 1014.5 |
| 20260504234918 | 73 | 218 | 2.6 | 5.2 | 0.00 | 0.00 | 0.00 | 47 | 1014.5 |
| 20260504233918 | 73 | 235 | 2.6 | 4.3 | 0.00 | 0.00 | 0.00 | 46 | 1014.4 |
| 20260504232918 | 74 | 204 | 1.7 | 9.6 | 0.00 | 0.00 | 0.00 | 46 | 1014.4 |
| 20260504231918 | 76 | 250 | 2.6 | 7.8 | 0.00 | 0.00 | 0.00 | 46 | 1014.3 |
| 20260504230918 | 76 | 264 | 1.7 | 7.8 | 0.00 | 0.00 | 0.00 | 46 | 1014.2 |
| 20260504225918 | 76 | 266 | 1.7 | 7.0 | 0.00 | 0.00 | 0.00 | 46 | 1014.2 |
| 20260504224918 | 76 | 178 | 1.7 | 4.3 | 0.00 | 0.00 | 0.00 | 46 | 1014.2 |
| 20260504223918 | 76 | 179 | 2.6 | 5.2 | 0.00 | 0.00 | 0.00 | 47 | 1014.3 |
| 20260504222918 | 76 | 261 | 3.5 | 7.8 | 0.00 | 0.00 | 0.00 | 47 | 1014.4 |
| 20260504221918 | 76 | 239 | 3.5 | 8.7 | 0.00 | 0.00 | 0.00 | 46 | 1014.3 |
| 20260504220918 | 76 | 278 | 2.6 | 7.0 | 0.00 | 0.00 | 0.00 | 46 | 1014.4 |
| 20260504215918 | 76 | 233 | 2.6 | 7.8 | 0.00 | 0.00 | 0.00 | 45 | 1014.4 |
| 20260504214919 | 77 | 314 | 2.6 | 7.0 | 0.00 | 0.00 | 0.00 | 45 | 1014.4 |
| 20260504213919 | 77 | 272 | 2.6 | 8.7 | 0.00 | 0.00 | 0.00 | 44 | 1014.3 |
| 20260504212919 | 76 | 167 | 1.7 | 5.2 | 0.00 | 0.00 | 0.00 | 48 | 1014.4 |
| 20260504211919 | 76 | 257 | 2.6 | 6.1 | 0.00 | 0.00 | 0.00 | 46 | 1014.5 |
| 20260504210919 | 76 | 260 | 3.5 | 8.7 | 0.00 | 0.00 | 0.00 | 44 | 1014.4 |
| 20260504205919 | 77 | 164 | 3.5 | 6.1 | 0.00 | 0.00 | 0.00 | 44 | 1014.7 |
| 20260504204919 | 77 | 256 | 3.5 | 8.7 | 0.00 | 0.00 | 0.00 | 43 | 1014.6 |
| 20260504203919 | 77 | 337 | 3.5 | 7.8 | 0.00 | 0.00 | 0.00 | 46 | 1014.8 |
| 20260504202919 | 77 | 299 | 2.6 | 7.8 | 0.00 | 0.00 | 0.00 | 45 | 1014.9 |
| 20260504201919 | 77 | 176 | 2.6 | 8.7 | 0.00 | 0.00 | 0.00 | 47 | 1015.0 |
| 20260504200919 | 76 | 319 | 3.5 | 8.7 | 0.00 | 0.00 | 0.00 | 49 | 1015.1 |
| 20260504195919 | 77 | 158 | 2.6 | 8.7 | 0.00 | 0.00 | 0.00 | 48 | 1015.2 |
| 20260504194919 | 76 | 337 | 2.6 | 7.0 | 0.00 | 0.00 | 0.00 | 46 | 1015.3 |
| 20260504193919 | 76 | 280 | 2.6 | 6.1 | 0.00 | 0.00 | 0.00 | 49 | 1015.6 |
| 20260504192919 | 76 | 343 | 2.6 | 7.0 | 0.00 | 0.00 | 0.00 | 50 | 1015.7 |
| 20260504191919 | 75 | 149 | 2.6 | 7.8 | 0.00 | 0.00 | 0.00 | 51 | 1016.1 |
| 20260504190919 | 74 | 245 | 2.6 | 7.0 | 0.00 | 0.00 | 0.00 | 52 | 1016.3 |
| 20260504185919 | 74 | 324 | 2.6 | 7.0 | 0.00 | 0.00 | 0.00 | 49 | 1016.4 |
| 20260504184919 | 75 | 244 | 1.7 | 4.3 | 0.00 | 0.00 | 0.00 | 52 | 1016.4 |
| 20260504183919 | 74 | 250 | 2.6 | 8.7 | 0.00 | 0.00 | 0.00 | 53 | 1016.7 |
| 20260504182919 | 74 | 278 | 2.6 | 5.2 | 0.00 | 0.00 | 0.00 | 52 | 1016.8 |